Terminal Aerodrome Forecast
Issued by NWS Lake Charles, LA

Home | Current Version | Previous Version | Text Only | Print | Product List | Glossary On
Versions: 1 2 3 4 5 6 7 8 9 10 11 12 13 14
000
FTUS44 KLCH 291720
TAFAEX
TAF
KAEX 291720Z 2918/3018 18014G19KT P6SM SCT028
     FM300000 18006KT P6SM SCT025
     FM300900 17004KT 4SM BR SCT025
      TEMPO 3010/3014 1/2SM FG OVC003=

USA.gov is the U.S. government's official web portal to all federal, state and local government web resources and services.